5LL5 weather

Gordon Brown Airport
Trivoli, Illinois, United States

Public forecast

Using degrees Fahrenheit for public forecast. Weather courtesy of forecast.io.

Closest aviation weather report (METAR) to Gordon Brown Airport

Closest report is General Wayne A. Downing Peoria International Airport, 9.0 nm (16.6 km) ESE. Retrieved 2020/07/06 16:54 UTC (36 minutes ago):

KPIA 061654Z 29005KT 10SM SCT048 SCT060 32/19 A3003 RMK AO2 SLP161 T03220194

Closest aviation forecast (TAF) to Gordon Brown Airport

Closest forecast is General Wayne A. Downing Peoria International Airport, 9.0 nm (16.6 km) ESE. Retrieved 2020/07/06 12:22 UTC (5 hours ago):

TAF KPIA 061120Z 0612/0712 06003KT P6SM SKC FM061700 11003KT P6SM SCT040 FM070200 16003KT P6SM SCT250